createdAt,value
2022-08-07T00:00:36.117Z,11.5
2022-08-07T00:01:53.222Z,11.5
2022-08-07T00:03:10.326Z,11.5
2022-08-07T00:04:27.430Z,11.5
2022-08-07T00:05:44.535Z,11.4
2022-08-07T00:07:01.639Z,11.4
2022-08-07T00:08:18.744Z,11.4
2022-08-07T00:09:34.864Z,11.4
2022-08-07T00:10:51.969Z,11.3
2022-08-07T00:12:09.073Z,11.3
2022-08-07T00:13:26.177Z,11.3
2022-08-07T00:14:43.282Z,11.3
2022-08-07T00:16:00.386Z,11.3
2022-08-07T00:17:17.488Z,11.3
2022-08-07T00:18:34.593Z,11.3
2022-08-07T00:19:51.697Z,11.2
2022-08-07T00:21:08.802Z,11.2
2022-08-07T00:22:25.906Z,11.2
2022-08-07T00:23:43.010Z,11.2
2022-08-07T00:25:00.115Z,11.2
2022-08-07T00:26:16.235Z,11.1
2022-08-07T00:27:33.340Z,11.1
2022-08-07T00:28:50.444Z,11.1
2022-08-07T00:30:07.549Z,11.1
2022-08-07T00:31:24.653Z,11.2
2022-08-07T00:32:41.757Z,11.1
2022-08-07T00:33:58.862Z,11.1
2022-08-07T00:35:15.964Z,11.1
2022-08-07T00:36:33.068Z,11
2022-08-07T00:37:50.173Z,11
2022-08-07T00:39:07.277Z,11
2022-08-07T00:40:24.382Z,11
2022-08-07T00:41:41.486Z,11
2022-08-07T00:42:57.607Z,10.9
2022-08-07T00:44:14.709Z,11
2022-08-07T00:45:31.813Z,11
2022-08-07T00:46:48.918Z,10.9
2022-08-07T00:48:06.020Z,10.9
2022-08-07T00:49:23.125Z,10.9
2022-08-07T00:50:40.229Z,10.8
2022-08-07T00:51:57.334Z,10.8
2022-08-07T00:53:14.438Z,10.8
2022-08-07T00:54:31.543Z,10.7
2022-08-07T00:55:48.647Z,10.7
2022-08-07T00:57:05.751Z,10.8
2022-08-07T00:58:22.856Z,10.8
2022-08-07T00:59:38.976Z,10.8
2022-08-07T01:00:56.081Z,10.8
2022-08-07T01:02:13.185Z,10.8
2022-08-07T01:03:30.290Z,10.8
2022-08-07T01:04:47.394Z,10.7
2022-08-07T01:06:04.499Z,10.7
2022-08-07T01:07:21.603Z,10.6
2022-08-07T01:08:38.707Z,10.5
2022-08-07T01:09:55.812Z,10.6
2022-08-07T01:11:12.916Z,10.6
2022-08-07T01:12:30.021Z,10.6
2022-08-07T01:13:47.125Z,10.7
2022-08-07T01:15:04.230Z,10.6
2022-08-07T01:16:20.350Z,10.7
2022-08-07T01:17:37.455Z,10.6
2022-08-07T01:18:54.559Z,10.6
2022-08-07T01:20:11.663Z,10.6
2022-08-07T01:21:28.768Z,10.5
2022-08-07T01:22:45.872Z,10.5
2022-08-07T01:24:02.977Z,10.5
2022-08-07T01:25:20.081Z,10.4
2022-08-07T01:26:37.186Z,10.4
2022-08-07T01:27:54.290Z,10.4
2022-08-07T01:29:11.395Z,10.4
2022-08-07T01:30:28.499Z,10.5
2022-08-07T01:31:45.604Z,10.5
2022-08-07T01:33:01.724Z,10.5
2022-08-07T01:34:18.829Z,10.5
2022-08-07T01:35:35.933Z,10.5
2022-08-07T01:36:53.038Z,10.5
2022-08-07T01:38:10.142Z,10.5
2022-08-07T01:39:27.247Z,10.4
2022-08-07T01:40:44.351Z,10.4
2022-08-07T01:42:01.455Z,10.4
2022-08-07T01:43:18.560Z,10.4
2022-08-07T01:44:35.664Z,10.4
2022-08-07T01:45:52.769Z,10.4
2022-08-07T01:47:09.874Z,10.4
2022-08-07T01:48:26.978Z,10.4
2022-08-07T01:49:43.099Z,10.4
2022-08-07T01:51:00.203Z,10.4
2022-08-07T01:52:17.307Z,10.4
2022-08-07T01:53:34.412Z,10.4
2022-08-07T01:54:51.516Z,10.3
2022-08-07T01:56:08.621Z,10.3
2022-08-07T01:57:25.725Z,10.1
2022-08-07T01:58:42.830Z,10.1
2022-08-07T01:59:59.934Z,10.1
2022-08-07T02:01:17.038Z,10.2
2022-08-07T02:02:34.143Z,10.3
2022-08-07T02:03:51.247Z,10.2
2022-08-07T02:05:08.351Z,10.2
2022-08-07T02:06:24.472Z,10.2
2022-08-07T02:07:41.576Z,10.2
2022-08-07T02:08:58.680Z,10.2
2022-08-07T02:10:15.785Z,10.2
2022-08-07T02:11:32.889Z,10.1
2022-08-07T02:12:49.994Z,10.1
2022-08-07T02:14:07.098Z,10.1
2022-08-07T02:15:24.202Z,10.1
2022-08-07T02:16:41.307Z,10
2022-08-07T02:17:58.411Z,9.9
2022-08-07T02:19:15.515Z,10
2022-08-07T02:20:32.620Z,10
2022-08-07T02:21:49.725Z,10
2022-08-07T02:23:05.845Z,9.9
2022-08-07T02:24:22.949Z,10
2022-08-07T02:25:40.054Z,10.1
2022-08-07T02:26:57.158Z,10
2022-08-07T02:28:14.262Z,10
2022-08-07T02:29:31.367Z,10
2022-08-07T02:30:47.487Z,10
2022-08-07T02:32:04.592Z,10
2022-08-07T02:33:21.696Z,10
2022-08-07T02:34:38.801Z,9.9
2022-08-07T02:35:55.905Z,10
2022-08-07T02:37:13.009Z,9.9
2022-08-07T02:38:30.114Z,9.9
2022-08-07T02:39:47.218Z,9.9
2022-08-07T02:41:04.322Z,9.9
2022-08-07T02:42:21.427Z,9.9
2022-08-07T02:43:38.531Z,9.8
2022-08-07T02:44:55.636Z,9.8
2022-08-07T02:46:12.740Z,9.8
2022-08-07T02:47:28.861Z,9.8
2022-08-07T02:48:45.965Z,9.8
2022-08-07T02:50:03.069Z,9.8
2022-08-07T02:51:20.174Z,9.7
2022-08-07T02:52:37.278Z,9.7
2022-08-07T02:53:54.382Z,9.7
2022-08-07T02:55:11.487Z,9.7
2022-08-07T02:56:28.592Z,9.7
2022-08-07T02:57:45.696Z,9.6
2022-08-07T02:59:02.800Z,9.5
2022-08-07T03:00:19.905Z,9.5
2022-08-07T03:01:37.009Z,9.4
2022-08-07T03:02:54.113Z,9.4
2022-08-07T03:04:10.234Z,9.4
2022-08-07T03:05:27.338Z,9.4
2022-08-07T03:06:44.443Z,9.5
2022-08-07T03:08:01.547Z,9.5
2022-08-07T03:09:18.652Z,9.5
2022-08-07T03:10:35.756Z,9.5
2022-08-07T03:11:52.860Z,9.5
2022-08-07T03:13:09.966Z,9.6
2022-08-07T03:14:27.070Z,9.5
2022-08-07T03:15:44.174Z,9.6
2022-08-07T03:17:01.279Z,9.6
2022-08-07T03:18:18.383Z,9.6
2022-08-07T03:19:35.488Z,9.6
2022-08-07T03:20:51.608Z,9.5
2022-08-07T03:22:08.712Z,9.5
2022-08-07T03:23:25.817Z,9.5
2022-08-07T03:24:42.921Z,9.5
2022-08-07T03:26:00.026Z,9.4
2022-08-07T03:27:17.130Z,9.4
2022-08-07T03:28:34.235Z,9.4
2022-08-07T03:29:51.339Z,9.4
2022-08-07T03:31:08.443Z,9.4
2022-08-07T03:32:25.548Z,9.4
2022-08-07T03:33:42.652Z,9.5
2022-08-07T03:34:59.757Z,9.4
2022-08-07T03:36:16.861Z,9.4
2022-08-07T03:37:32.982Z,9.4
2022-08-07T03:38:50.086Z,9.4
2022-08-07T03:40:07.191Z,9.4
2022-08-07T03:41:24.296Z,9.4
2022-08-07T03:42:41.400Z,9.4
2022-08-07T03:43:58.504Z,9.4
2022-08-07T03:45:15.609Z,9.4
2022-08-07T03:46:32.713Z,9.3
2022-08-07T03:47:49.818Z,9.3
2022-08-07T03:49:06.922Z,9.3
2022-08-07T03:50:24.027Z,9.3
2022-08-07T03:51:41.131Z,9.3
2022-08-07T03:52:58.236Z,9.3
2022-08-07T03:54:14.356Z,9.3
2022-08-07T03:55:31.461Z,9.2
2022-08-07T03:56:48.565Z,9.2
2022-08-07T03:58:05.670Z,9.2
2022-08-07T03:59:22.775Z,9.2
2022-08-07T04:00:39.879Z,9.2
2022-08-07T04:01:56.984Z,9.2
2022-08-07T04:03:14.088Z,9.2
2022-08-07T04:04:31.193Z,9.2
2022-08-07T04:05:48.297Z,9.2
2022-08-07T04:07:05.402Z,9.2
2022-08-07T04:08:22.506Z,9.2
2022-08-07T04:09:39.610Z,9.3
2022-08-07T04:10:55.731Z,9.3
2022-08-07T04:12:12.835Z,9.3
2022-08-07T04:13:29.940Z,9.3
2022-08-07T04:14:47.044Z,9.3
2022-08-07T04:16:04.149Z,9.3
2022-08-07T04:17:21.253Z,9.4
2022-08-07T04:18:38.358Z,9.4
2022-08-07T04:19:55.462Z,9.4
2022-08-07T04:21:12.566Z,9.4
2022-08-07T04:22:29.671Z,9.4
2022-08-07T04:23:46.776Z,9.4
2022-08-07T04:25:03.880Z,9.5
2022-08-07T04:26:20.984Z,9.5
2022-08-07T04:27:37.105Z,9.5
2022-08-07T04:28:54.209Z,9.5
2022-08-07T04:30:11.313Z,9.6
2022-08-07T04:31:28.418Z,10
2022-08-07T04:32:45.522Z,10.7
2022-08-07T04:34:02.627Z,11.3
2022-08-07T04:35:19.731Z,11.7
2022-08-07T04:36:36.836Z,12.1
2022-08-07T04:37:53.940Z,12.4
2022-08-07T04:39:11.044Z,12.7
2022-08-07T04:40:28.148Z,13.1
2022-08-07T04:41:45.253Z,13.5
2022-08-07T04:43:02.357Z,14
2022-08-07T04:44:18.478Z,14.5
2022-08-07T04:45:35.582Z,14.6
2022-08-07T04:46:52.687Z,14.7
2022-08-07T04:48:09.791Z,14.9
2022-08-07T04:49:26.895Z,15.1
2022-08-07T04:50:43.999Z,15.4
2022-08-07T04:52:01.103Z,15.8
2022-08-07T04:53:18.207Z,16.2
2022-08-07T04:54:35.311Z,16.7
2022-08-07T04:55:52.415Z,17.2
2022-08-07T04:57:09.520Z,17.6
2022-08-07T04:58:26.624Z,17.6
2022-08-07T04:59:43.728Z,17.5
2022-08-07T05:00:59.848Z,17.3
2022-08-07T05:02:16.952Z,17.1
2022-08-07T05:03:34.056Z,17.4
2022-08-07T05:04:51.160Z,18
2022-08-07T05:06:08.264Z,18.4
2022-08-07T05:07:25.368Z,18.8
2022-08-07T05:08:42.472Z,19.1
2022-08-07T05:09:59.576Z,19.4
2022-08-07T05:11:16.680Z,19.8
2022-08-07T05:12:33.784Z,20.1
2022-08-07T05:13:50.887Z,20.1
2022-08-07T05:15:07.991Z,20.1
2022-08-07T05:16:25.095Z,20.2
2022-08-07T05:17:41.216Z,20.2
2022-08-07T05:18:58.320Z,20.4
2022-08-07T05:20:15.424Z,20.5
2022-08-07T05:21:32.528Z,20.4
2022-08-07T05:22:49.632Z,19.8
2022-08-07T05:24:06.736Z,19
2022-08-07T05:25:23.841Z,18.5
2022-08-07T05:26:40.945Z,18
2022-08-07T05:27:58.048Z,17.6
2022-08-07T05:29:15.152Z,17.4
2022-08-07T05:30:32.257Z,17.1
2022-08-07T05:31:49.360Z,16.9
2022-08-07T05:33:06.464Z,16.8
2022-08-07T05:34:22.584Z,17
2022-08-07T05:35:39.688Z,18
2022-08-07T05:36:56.792Z,19
2022-08-07T05:38:13.896Z,19.8
2022-08-07T05:39:31.000Z,20.5
2022-08-07T05:40:48.104Z,21
2022-08-07T05:42:05.208Z,21.3
2022-08-07T05:43:22.312Z,21.4
2022-08-07T05:44:39.416Z,21.8
2022-08-07T05:45:56.520Z,22.2
2022-08-07T05:47:13.624Z,22.7
2022-08-07T05:48:30.728Z,23.1
2022-08-07T05:49:47.832Z,23.5
2022-08-07T05:51:03.952Z,23.7
2022-08-07T05:52:21.056Z,24.2
2022-08-07T05:53:38.160Z,24.2
2022-08-07T05:54:55.264Z,24.3
2022-08-07T05:56:12.368Z,24.3
2022-08-07T05:57:29.473Z,24
2022-08-07T05:58:46.576Z,23.6
2022-08-07T06:00:03.680Z,23.6
2022-08-07T06:01:20.784Z,23.3
2022-08-07T06:02:37.888Z,23
2022-08-07T06:03:54.993Z,23.2
2022-08-07T06:05:12.097Z,23.4
2022-08-07T06:06:29.201Z,23.3
2022-08-07T06:07:45.322Z,22.7
2022-08-07T06:09:02.426Z,22.3
2022-08-07T06:10:19.530Z,22.4
2022-08-07T06:11:36.635Z,22.2
2022-08-07T06:12:53.739Z,22.5
2022-08-07T06:14:10.844Z,23
2022-08-07T06:15:27.949Z,24
2022-08-07T06:16:45.053Z,24.6
2022-08-07T06:18:02.158Z,24.8
2022-08-07T06:19:19.261Z,25.1
2022-08-07T06:20:36.365Z,25.4
2022-08-07T06:21:53.469Z,26.2
2022-08-07T06:23:10.573Z,26.8
2022-08-07T06:24:26.694Z,26.5
2022-08-07T06:25:43.798Z,26
2022-08-07T06:27:00.903Z,25.6
2022-08-07T06:28:18.007Z,25.6
2022-08-07T06:29:35.111Z,25.7
2022-08-07T06:30:52.216Z,25.5
2022-08-07T06:32:09.320Z,25.3
2022-08-07T06:33:26.424Z,24.7
2022-08-07T06:34:43.529Z,24
2022-08-07T06:36:00.633Z,23.5
2022-08-07T06:37:17.738Z,22.9
2022-08-07T06:38:34.842Z,22.7
2022-08-07T06:39:51.948Z,22.4
2022-08-07T06:41:08.068Z,22.7
2022-08-07T06:42:25.172Z,23
2022-08-07T06:43:42.277Z,23.5
2022-08-07T06:44:59.381Z,24
2022-08-07T06:46:16.485Z,24.4
2022-08-07T06:47:33.590Z,24.3
2022-08-07T06:48:49.710Z,24.3
2022-08-07T06:50:06.815Z,24.3
2022-08-07T06:51:23.919Z,24
2022-08-07T06:52:41.023Z,24
2022-08-07T06:53:58.126Z,24.3
2022-08-07T06:55:15.230Z,24
2022-08-07T06:56:32.334Z,23.9
2022-08-07T06:57:49.439Z,23.8
2022-08-07T06:59:06.543Z,24
2022-08-07T07:00:23.648Z,24
2022-08-07T07:01:40.752Z,24.1
2022-08-07T07:02:57.856Z,24
2022-08-07T07:04:14.961Z,23.9
2022-08-07T07:05:31.081Z,23.8
2022-08-07T07:06:48.185Z,24
2022-08-07T07:08:05.290Z,23.9
2022-08-07T07:09:22.394Z,24.2
2022-08-07T07:10:39.498Z,24.4
2022-08-07T07:11:56.603Z,24.3
2022-08-07T07:13:13.707Z,24.2
2022-08-07T07:14:30.812Z,24.3
2022-08-07T07:15:47.916Z,24.3
2022-08-07T07:17:05.020Z,24.3
2022-08-07T07:18:22.125Z,24.2
2022-08-07T07:19:39.229Z,24.1
2022-08-07T07:20:56.334Z,24.2
2022-08-07T07:22:12.454Z,24.3
2022-08-07T07:23:29.559Z,24.4
2022-08-07T07:24:46.663Z,24.5
2022-08-07T07:26:03.768Z,24.4
2022-08-07T07:27:20.872Z,24.5
2022-08-07T07:28:37.976Z,24.6
2022-08-07T07:29:55.081Z,24.8
2022-08-07T07:31:12.185Z,25
2022-08-07T07:32:29.289Z,24.9
2022-08-07T07:33:46.394Z,25.1
2022-08-07T07:35:03.499Z,25.1
2022-08-07T07:36:20.603Z,25.5
2022-08-07T07:37:37.707Z,26
2022-08-07T07:38:53.828Z,25.9
2022-08-07T07:40:10.932Z,25.9
2022-08-07T07:41:28.037Z,25.9
2022-08-07T07:42:45.141Z,26.1
2022-08-07T07:44:02.246Z,26.2
2022-08-07T07:45:19.351Z,26.3
2022-08-07T07:46:36.455Z,26.6
2022-08-07T07:47:53.559Z,27.1
2022-08-07T07:49:10.664Z,27.8
2022-08-07T07:50:27.768Z,28
2022-08-07T07:51:44.872Z,28.2
2022-08-07T07:53:01.977Z,28.1
2022-08-07T07:54:19.082Z,27.8
2022-08-07T07:55:35.203Z,27.5
2022-08-07T07:56:52.308Z,27.4
2022-08-07T07:58:09.412Z,27.2
2022-08-07T07:59:26.518Z,27.2
2022-08-07T08:00:43.622Z,27.2
2022-08-07T08:02:00.727Z,27.2
2022-08-07T08:03:17.832Z,27.9
2022-08-07T08:04:34.937Z,27.9
2022-08-07T08:05:52.042Z,27.7
2022-08-07T08:07:09.147Z,27.3
2022-08-07T08:08:26.251Z,27.1
2022-08-07T08:09:43.356Z,27.3
2022-08-07T08:11:00.461Z,27.3
2022-08-07T08:12:16.582Z,26.9
2022-08-07T08:13:33.686Z,26.7
2022-08-07T08:14:50.791Z,26.6
2022-08-07T08:16:07.896Z,26.6
2022-08-07T08:17:25.000Z,27
2022-08-07T08:18:42.105Z,27.4
2022-08-07T08:19:59.210Z,27.8
2022-08-07T08:21:16.315Z,28.6
2022-08-07T08:22:33.419Z,28.6
2022-08-07T08:23:50.524Z,28.8
2022-08-07T08:25:07.628Z,29.3
2022-08-07T08:26:24.733Z,29.3
2022-08-07T08:27:41.838Z,29.3
2022-08-07T08:28:57.958Z,28.8
2022-08-07T08:30:15.063Z,28.6
2022-08-07T08:31:32.168Z,28.5
2022-08-07T08:32:49.273Z,28.2
2022-08-07T08:34:06.378Z,28.5
2022-08-07T08:35:23.482Z,28.2
2022-08-07T08:36:40.587Z,28.5
2022-08-07T08:37:57.692Z,29
2022-08-07T08:39:14.797Z,29.6
2022-08-07T08:40:31.902Z,30
2022-08-07T08:41:49.006Z,30.3
2022-08-07T08:43:06.111Z,30.8
2022-08-07T08:44:23.216Z,31.1
2022-08-07T08:45:39.337Z,31.2
2022-08-07T08:46:56.442Z,31
2022-08-07T08:48:13.547Z,30.8
2022-08-07T08:49:30.652Z,30.5
2022-08-07T08:50:47.757Z,30.5
2022-08-07T08:52:04.862Z,31
2022-08-07T08:53:21.967Z,30.7
2022-08-07T08:54:39.072Z,30.9
2022-08-07T08:55:56.176Z,31.1
2022-08-07T08:57:13.281Z,31.5
2022-08-07T08:58:30.386Z,31.8
2022-08-07T08:59:47.491Z,31.8
2022-08-07T09:01:04.596Z,31.9
2022-08-07T09:02:20.717Z,31.5
2022-08-07T09:03:37.822Z,30.4
2022-08-07T09:04:54.927Z,30
2022-08-07T09:06:12.032Z,30.2
2022-08-07T09:07:29.137Z,30.4
2022-08-07T09:08:46.242Z,29.5
2022-08-07T09:10:03.347Z,29.8
2022-08-07T09:11:20.452Z,30.4
2022-08-07T09:12:37.557Z,31
2022-08-07T09:13:54.662Z,31.4
2022-08-07T09:15:11.767Z,31.9
2022-08-07T09:16:28.873Z,32.2
2022-08-07T09:17:45.978Z,32.1
2022-08-07T09:19:02.099Z,31.7
2022-08-07T09:20:19.204Z,31.4
2022-08-07T09:21:36.309Z,30.6
2022-08-07T09:22:53.414Z,30.7
2022-08-07T09:24:10.519Z,30.5
2022-08-07T09:25:27.624Z,30.7
2022-08-07T09:26:44.729Z,31
2022-08-07T09:28:01.834Z,31
2022-08-07T09:29:18.939Z,30.9
2022-08-07T09:30:36.044Z,30.1
2022-08-07T09:31:53.148Z,29.4
2022-08-07T09:33:10.253Z,29
2022-08-07T09:34:27.358Z,29
2022-08-07T09:35:43.479Z,29.4
2022-08-07T09:37:00.584Z,29.6
2022-08-07T09:38:17.689Z,29.8
2022-08-07T09:39:34.794Z,30.1
2022-08-07T09:40:51.899Z,30.3
2022-08-07T09:42:09.004Z,30.1
2022-08-07T09:43:26.109Z,29.9
2022-08-07T09:44:43.214Z,30
2022-08-07T09:46:00.319Z,29.9
2022-08-07T09:47:17.424Z,29.5
2022-08-07T09:48:34.529Z,29.2
2022-08-07T09:49:51.634Z,28.8
2022-08-07T09:51:08.739Z,28.6
2022-08-07T09:52:24.860Z,28.7
2022-08-07T09:53:41.965Z,29
2022-08-07T09:54:59.070Z,29
2022-08-07T09:56:16.175Z,28.6
2022-08-07T09:57:33.279Z,28.4
2022-08-07T09:58:50.384Z,28.8
2022-08-07T10:00:07.489Z,29.3
2022-08-07T10:01:24.593Z,29.8
2022-08-07T10:02:41.698Z,30.2
2022-08-07T10:03:58.803Z,30.6
2022-08-07T10:05:15.907Z,30.6
2022-08-07T10:06:33.012Z,30.6
2022-08-07T10:07:50.117Z,29.8
2022-08-07T10:09:06.238Z,29.4
2022-08-07T10:10:23.343Z,29.3
2022-08-07T10:11:40.447Z,28.9
2022-08-07T10:12:57.552Z,28.9
2022-08-07T10:14:14.656Z,29.2
2022-08-07T10:15:31.761Z,29.7
2022-08-07T10:16:48.866Z,30.3
2022-08-07T10:18:05.970Z,30.2
2022-08-07T10:19:23.075Z,30.4
2022-08-07T10:20:40.178Z,30.2
2022-08-07T10:21:57.282Z,30.5
2022-08-07T10:23:14.387Z,30.7
2022-08-07T10:24:31.492Z,30.4
2022-08-07T10:25:47.612Z,30.4
2022-08-07T10:27:04.717Z,29.5
2022-08-07T10:28:21.822Z,29.4
2022-08-07T10:29:38.926Z,29.5
2022-08-07T10:30:56.031Z,29.5
2022-08-07T10:32:13.136Z,29.7
2022-08-07T10:33:30.241Z,28.7
2022-08-07T10:34:47.345Z,28.1
2022-08-07T10:36:04.450Z,28.1
2022-08-07T10:37:21.555Z,28.5
2022-08-07T10:38:38.659Z,28.7
2022-08-07T10:39:55.764Z,29
2022-08-07T10:41:12.868Z,28.9
2022-08-07T10:42:28.989Z,28.9
2022-08-07T10:43:46.094Z,28.7
2022-08-07T10:45:03.199Z,28.4
2022-08-07T10:46:20.303Z,28.1
2022-08-07T10:47:37.408Z,28
2022-08-07T10:48:54.512Z,28.2
2022-08-07T10:50:11.616Z,28.2
2022-08-07T10:51:28.721Z,28.3
2022-08-07T10:52:45.825Z,28.4
2022-08-07T10:54:02.930Z,28.2
2022-08-07T10:55:20.034Z,28.2
2022-08-07T10:56:37.139Z,28.1
2022-08-07T10:57:54.244Z,28.1
2022-08-07T10:59:10.364Z,27.9
2022-08-07T11:00:27.469Z,28
2022-08-07T11:01:44.573Z,28.1
2022-08-07T11:03:01.677Z,28.1
2022-08-07T11:04:18.781Z,28.1
2022-08-07T11:05:35.886Z,27.9
2022-08-07T11:06:52.006Z,27.9
2022-08-07T11:08:09.110Z,27.9
2022-08-07T11:09:26.213Z,27.9
2022-08-07T11:10:43.317Z,27.7
2022-08-07T11:12:00.421Z,27.7
2022-08-07T11:13:17.525Z,27.6
2022-08-07T11:14:34.629Z,27.6
2022-08-07T11:15:51.734Z,27.5
2022-08-07T11:17:08.839Z,27.3
2022-08-07T11:18:25.943Z,26.8
2022-08-07T11:19:43.047Z,26.3
2022-08-07T11:21:00.152Z,25.9
2022-08-07T11:22:17.256Z,25.6
2022-08-07T11:23:33.376Z,25.6
2022-08-07T11:24:50.480Z,25.7
2022-08-07T11:26:07.584Z,25.9
2022-08-07T11:27:24.688Z,26.1
2022-08-07T11:28:41.793Z,26.1
2022-08-07T11:29:58.897Z,26.1
2022-08-07T11:31:16.001Z,26.1
2022-08-07T11:32:33.105Z,26.1
2022-08-07T11:33:50.209Z,26.2
2022-08-07T11:35:07.313Z,26.1
2022-08-07T11:36:24.417Z,26.1
2022-08-07T11:37:41.521Z,26.1
2022-08-07T11:38:58.626Z,26
2022-08-07T11:40:14.746Z,25.9
2022-08-07T11:41:31.850Z,25.9
2022-08-07T11:42:48.954Z,25.9
2022-08-07T11:44:06.058Z,26.1
2022-08-07T11:45:23.162Z,26.1
2022-08-07T11:46:40.266Z,26.2
2022-08-07T11:47:57.370Z,26.3
2022-08-07T11:49:14.474Z,26.3
2022-08-07T11:50:31.579Z,26.3
2022-08-07T11:51:48.683Z,26
2022-08-07T11:53:05.787Z,26
2022-08-07T11:54:22.891Z,25.4
2022-08-07T11:55:39.995Z,25.1
2022-08-07T11:56:56.115Z,25.1
2022-08-07T11:58:13.220Z,25
2022-08-07T11:59:30.324Z,25
2022-08-07T12:00:47.428Z,25
2022-08-07T12:02:04.532Z,25.2
2022-08-07T12:03:21.636Z,25.3
2022-08-07T12:04:38.741Z,25.4
2022-08-07T12:05:55.845Z,25.6
2022-08-07T12:07:12.949Z,25.7
2022-08-07T12:08:30.053Z,25.5
2022-08-07T12:09:47.157Z,25.5
2022-08-07T12:11:04.262Z,25.6
2022-08-07T12:12:21.366Z,25.5
2022-08-07T12:13:37.487Z,25.3
2022-08-07T12:14:54.592Z,24.9
2022-08-07T12:16:11.696Z,24.8
2022-08-07T12:17:28.800Z,24.9
2022-08-07T12:18:45.905Z,24.8
2022-08-07T12:20:03.009Z,24.8
2022-08-07T12:21:20.113Z,25
2022-08-07T12:22:37.217Z,25.1
2022-08-07T12:23:54.321Z,25.1
2022-08-07T12:25:11.425Z,25.1
2022-08-07T12:26:28.530Z,25.2
2022-08-07T12:27:45.634Z,25.4
2022-08-07T12:29:02.738Z,25.5
2022-08-07T12:30:18.858Z,25.5
2022-08-07T12:31:35.962Z,25.7
2022-08-07T12:32:53.066Z,25.4
2022-08-07T12:34:10.171Z,25.1
2022-08-07T12:35:27.275Z,25.2
2022-08-07T12:36:44.379Z,25.3
2022-08-07T12:38:01.484Z,25.2
2022-08-07T12:39:18.589Z,25.2
2022-08-07T12:40:35.693Z,25.3
2022-08-07T12:41:52.797Z,25.4
2022-08-07T12:43:09.901Z,25.5
2022-08-07T12:44:27.005Z,25.5
2022-08-07T12:45:44.110Z,25.6
2022-08-07T12:47:00.230Z,25.7
2022-08-07T12:48:17.334Z,25.6
2022-08-07T12:49:34.438Z,25.7
2022-08-07T12:50:51.543Z,25.8
2022-08-07T12:52:08.647Z,25.7
2022-08-07T12:53:25.751Z,25.5
2022-08-07T12:54:42.855Z,25.1
2022-08-07T12:55:59.959Z,25.2
2022-08-07T12:57:17.064Z,25.2
2022-08-07T12:58:34.168Z,25.3
2022-08-07T12:59:51.272Z,25.4
2022-08-07T13:01:08.376Z,25.6
2022-08-07T13:02:25.480Z,25.6
2022-08-07T13:03:41.600Z,25.7
2022-08-07T13:04:58.704Z,25.8
2022-08-07T13:06:15.809Z,25.8
2022-08-07T13:07:32.913Z,25.9
2022-08-07T13:08:50.017Z,25.9
2022-08-07T13:10:07.122Z,26
2022-08-07T13:11:24.226Z,25.8
2022-08-07T13:12:41.331Z,25.4
2022-08-07T13:13:58.435Z,25
2022-08-07T13:15:15.539Z,25
2022-08-07T13:16:32.643Z,25.2
2022-08-07T13:17:49.747Z,25.3
2022-08-07T13:19:06.852Z,25.5
2022-08-07T13:20:22.972Z,25.5
2022-08-07T13:21:40.076Z,25.5
2022-08-07T13:22:57.180Z,25.2
2022-08-07T13:24:14.284Z,24.8
2022-08-07T13:25:31.389Z,24.6
2022-08-07T13:26:48.493Z,24.6
2022-08-07T13:28:05.597Z,24.7
2022-08-07T13:29:22.701Z,24.9
2022-08-07T13:30:39.805Z,25
2022-08-07T13:31:56.909Z,24.8
2022-08-07T13:33:14.013Z,24.9
2022-08-07T13:34:31.118Z,24.9
2022-08-07T13:35:48.222Z,24.9
2022-08-07T13:37:04.342Z,25.1
2022-08-07T13:38:21.446Z,25.2
2022-08-07T13:39:38.550Z,25.4
2022-08-07T13:40:55.655Z,25.5
2022-08-07T13:42:12.759Z,25.5
2022-08-07T13:43:29.863Z,25.5
2022-08-07T13:44:46.968Z,25.5
2022-08-07T13:46:04.072Z,25.6
2022-08-07T13:47:21.176Z,25.7
2022-08-07T13:48:38.280Z,25.8
2022-08-07T13:49:55.384Z,25.9
2022-08-07T13:51:12.488Z,25.9
2022-08-07T13:52:29.593Z,25.8
2022-08-07T13:53:45.713Z,25.8
2022-08-07T13:55:02.817Z,25.7
2022-08-07T13:56:19.921Z,25.7
2022-08-07T13:57:37.025Z,25.8
2022-08-07T13:58:54.130Z,25.8
2022-08-07T14:00:11.234Z,25.6
2022-08-07T14:01:28.338Z,25.6
2022-08-07T14:02:45.442Z,25.7
2022-08-07T14:04:02.547Z,25.7
2022-08-07T14:05:19.651Z,25.8
2022-08-07T14:06:36.755Z,25.9
2022-08-07T14:07:53.859Z,25.9
2022-08-07T14:09:10.963Z,25.9
2022-08-07T14:10:27.084Z,26
2022-08-07T14:11:44.188Z,26
2022-08-07T14:13:01.292Z,26
2022-08-07T14:14:18.396Z,26
2022-08-07T14:15:35.501Z,25.9
2022-08-07T14:16:52.605Z,25.8
2022-08-07T14:18:09.709Z,25.8
2022-08-07T14:19:26.813Z,25.4
2022-08-07T14:20:43.918Z,25.3
2022-08-07T14:22:01.022Z,25.2
2022-08-07T14:23:18.126Z,25.2
2022-08-07T14:24:35.230Z,25.1
2022-08-07T14:25:52.335Z,25.1
2022-08-07T14:27:08.455Z,25.3
2022-08-07T14:28:25.559Z,25.4
2022-08-07T14:29:42.663Z,25.5
2022-08-07T14:30:59.767Z,25.7
2022-08-07T14:32:16.872Z,25.7
2022-08-07T14:33:33.976Z,25.8
2022-08-07T14:34:51.080Z,25.8
2022-08-07T14:36:08.184Z,25.9
2022-08-07T14:37:25.289Z,25.8
2022-08-07T14:38:42.393Z,25.8
2022-08-07T14:39:59.497Z,25.8
2022-08-07T14:41:16.601Z,25.8
2022-08-07T14:42:33.705Z,25.8
2022-08-07T14:43:49.826Z,25.8
2022-08-07T14:45:06.930Z,25.9
2022-08-07T14:46:24.034Z,25.9
2022-08-07T14:47:41.138Z,26
2022-08-07T14:48:58.243Z,26
2022-08-07T14:50:15.347Z,26
2022-08-07T14:51:32.451Z,26
2022-08-07T14:52:49.555Z,26
2022-08-07T14:54:06.659Z,25.9
2022-08-07T14:55:23.764Z,25.9
2022-08-07T14:56:40.868Z,25.9
2022-08-07T14:57:57.972Z,25.9
2022-08-07T14:59:15.076Z,25.9
2022-08-07T15:00:31.197Z,25.9
2022-08-07T15:01:48.301Z,25.9
2022-08-07T15:03:05.405Z,25.9
2022-08-07T15:04:22.510Z,25.9
2022-08-07T15:05:39.614Z,26
2022-08-07T15:06:56.719Z,26
2022-08-07T15:08:13.823Z,26
2022-08-07T15:09:30.927Z,26
2022-08-07T15:10:48.031Z,25.9
2022-08-07T15:12:05.135Z,25.9
2022-08-07T15:13:22.240Z,25.7
2022-08-07T15:14:39.344Z,25.8
2022-08-07T15:15:56.449Z,25.8
2022-08-07T15:17:12.569Z,25.8
2022-08-07T15:18:29.674Z,25.8
2022-08-07T15:19:46.778Z,25.8
2022-08-07T15:21:03.882Z,25.8
2022-08-07T15:22:20.987Z,25.8
2022-08-07T15:23:38.091Z,25.7
2022-08-07T15:24:54.211Z,25.7
2022-08-07T15:26:11.315Z,25.5
2022-08-07T15:27:28.420Z,25.5
2022-08-07T15:28:45.524Z,25.6
2022-08-07T15:30:02.628Z,25.7
2022-08-07T15:31:19.732Z,25.7
2022-08-07T15:32:36.836Z,25.7
2022-08-07T15:33:53.941Z,25.7
2022-08-07T15:35:11.045Z,25.6
2022-08-07T15:36:28.149Z,25.6
2022-08-07T15:37:45.253Z,25.6
2022-08-07T15:39:02.357Z,25.6
2022-08-07T15:40:19.462Z,25.6
2022-08-07T15:41:35.582Z,25.5
2022-08-07T15:42:52.686Z,25.2
2022-08-07T15:44:09.790Z,25.1
2022-08-07T15:45:26.895Z,25.1
2022-08-07T15:46:43.999Z,25.1
2022-08-07T15:48:01.103Z,25.1
2022-08-07T15:49:18.207Z,25.1
2022-08-07T15:50:35.311Z,25
2022-08-07T15:51:52.416Z,25.1
2022-08-07T15:53:09.521Z,25.1
2022-08-07T15:54:26.625Z,25.2
2022-08-07T15:55:43.729Z,25.3
2022-08-07T15:57:00.833Z,25.3
2022-08-07T15:58:16.954Z,25.2
2022-08-07T15:59:34.058Z,25
2022-08-07T16:00:51.162Z,25
2022-08-07T16:02:08.266Z,25
2022-08-07T16:03:25.371Z,25.1
2022-08-07T16:04:42.475Z,25.1
2022-08-07T16:05:59.579Z,25.1
2022-08-07T16:07:16.684Z,25
2022-08-07T16:08:33.788Z,24.9
2022-08-07T16:09:50.892Z,24.9
2022-08-07T16:11:07.996Z,25
2022-08-07T16:12:25.099Z,25
2022-08-07T16:13:42.203Z,25.1
2022-08-07T16:14:58.324Z,25.1
2022-08-07T16:16:15.428Z,25.2
2022-08-07T16:17:32.532Z,25.1
2022-08-07T16:18:49.636Z,25
2022-08-07T16:20:06.740Z,24.9
2022-08-07T16:21:23.844Z,24.9
2022-08-07T16:22:40.948Z,24.9
2022-08-07T16:23:58.052Z,24.8
2022-08-07T16:25:15.156Z,24.7
2022-08-07T16:26:32.260Z,24.7
2022-08-07T16:27:49.364Z,24.7
2022-08-07T16:29:06.469Z,24.7
2022-08-07T16:30:23.573Z,24.7
2022-08-07T16:31:39.693Z,24.7
2022-08-07T16:32:56.797Z,24.6
2022-08-07T16:34:13.901Z,24.6
2022-08-07T16:35:31.005Z,24.6
2022-08-07T16:36:48.109Z,24.6
2022-08-07T16:38:05.212Z,24.6
2022-08-07T16:39:22.316Z,24.6
2022-08-07T16:40:39.420Z,24.7
2022-08-07T16:41:56.524Z,24.7
2022-08-07T16:43:13.628Z,24.7
2022-08-07T16:44:30.732Z,24.7
2022-08-07T16:45:47.836Z,24.7
2022-08-07T16:47:04.940Z,24.7
2022-08-07T16:48:21.060Z,24.6
2022-08-07T16:49:38.164Z,24.5
2022-08-07T16:50:55.268Z,24.5
2022-08-07T16:52:12.373Z,24.4
2022-08-07T16:53:29.477Z,24.2
2022-08-07T16:54:46.581Z,24.1
2022-08-07T16:56:03.685Z,24.2
2022-08-07T16:57:20.789Z,24.2
2022-08-07T16:58:37.893Z,24.2
2022-08-07T16:59:54.996Z,24.1
2022-08-07T17:01:12.100Z,24.1
2022-08-07T17:02:29.205Z,24.1
2022-08-07T17:03:46.308Z,24.2
2022-08-07T17:05:02.429Z,24.2
2022-08-07T17:06:19.532Z,24.3
2022-08-07T17:07:36.636Z,24.2
2022-08-07T17:08:53.740Z,24.2
2022-08-07T17:10:10.844Z,24.2
2022-08-07T17:11:27.948Z,24.2
2022-08-07T17:12:45.052Z,24.2
2022-08-07T17:14:02.156Z,24.2
2022-08-07T17:15:19.260Z,24.1
2022-08-07T17:16:36.364Z,24.1